Airfield :
LOGIN :

Register | Disclaimer

   EN    FR    IT 

 










Legend :    VFR   Marginal VFR   IFR   Intensive IFR   Very Intensive IFR
Visi :
Ceiling :
>= 8 km
>= 3000ft
5 to 8 km
1000 to 3000 ft
1500m to 5 km
500 to 1000 ft
800 to 1500m
200 to 500 ft
< 800m
< 200 ft
Symbols :   Thunderstorms  Fog  Heavy snow  Heavy precipitations  Wind > 20 kt
SIGMETs :     Misc.  Thunderstorms  Icing  Turbulence  Mountain Waves  Volcanic Ashes






- Airport Elevation : 357 ft
- IATA code : TUF


LFOT - Tours

CURRENT METAR :
  • 301300Z AUTO 03007KT 360V070 9999 OVC007 06/04 Q1022 NOSIG

EXPIRED METARs :
  • 301230Z AUTO 04006KT 360V080 9999 OVC008 06/05 Q1022 NOSIG
  • 301200Z AUTO 03008KT 350V080 9999 OVC008 06/04 Q1022 NOSIG
  • 301130Z AUTO 05006KT 360V090 9999 OVC008 07/05 Q1022 BECMG BKN016
  • 301100Z AUTO 06008KT 9999 BKN007 OVC041 06/05 Q1022 BECMG BKN016
  • 301030Z AUTO 05007KT 360V080 9999 BKN007 OVC040 06/05 Q1022 BECMG BKN016

TAF TAF LFOT
Valid from the 30 at 12:00 until the 01 at 12:00 UTC


301100Z 3012/0112 05005KT 9999 BKN015 OVC040
TEMPO 3012/3021 BKN009
BECMG 3021/3024 OVC007
BECMG 0109/0111 BKN015



MET'MAP, your aeronautical weather chart ! - Copyright ORBIFLY December 2007 - Disclaimer

ORBIFLY MET'MAP TEAM :

Programming & Development : Alexandra Zaïnal
Original concept : Baudouin d'Aumeries
Technical & hardware support : Manuel Goepfert
Assistance : Marc-Olivier Méhu




SOURCES & CREDITS :

   NOAA